createdAt,value
2022-08-23T00:01:21.261Z,29.48
2022-08-23T00:03:55.752Z,29.48
2022-08-23T00:06:23.189Z,29.49
2022-08-23T00:08:52.471Z,29.50
2022-08-23T00:11:29.155Z,29.52
2022-08-23T00:13:57.029Z,29.53
2022-08-23T00:16:24.314Z,29.50
2022-08-23T00:18:53.152Z,29.48
2022-08-23T00:21:20.410Z,29.48
2022-08-23T00:23:47.829Z,29.45
2022-08-23T00:26:15.000Z,29.50
2022-08-23T00:28:42.119Z,29.51
2022-08-23T00:31:09.295Z,29.56
2022-08-23T00:33:36.502Z,29.55
2022-08-23T00:36:05.221Z,29.60
2022-08-23T00:38:34.980Z,29.63
2022-08-23T00:41:04.005Z,29.54
2022-08-23T00:43:36.961Z,29.22
2022-08-23T00:46:16.006Z,29.00
2022-08-23T00:48:43.541Z,28.78
2022-08-23T00:51:17.702Z,28.56
2022-08-23T00:53:48.660Z,28.46
2022-08-23T00:56:19.562Z,28.34
2022-08-23T00:58:47.522Z,28.21
2022-08-23T01:01:15.731Z,28.10
2022-08-23T01:03:57.160Z,28.06
2022-08-23T01:06:41.982Z,28.02
2022-08-23T01:09:15.321Z,27.90
2022-08-23T01:11:51.360Z,27.88
2022-08-23T01:14:27.980Z,27.85
2022-08-23T01:17:02.487Z,27.84
2022-08-23T01:19:38.745Z,27.77
2022-08-23T01:22:13.601Z,27.75
2022-08-23T01:25:05.824Z,27.67
2022-08-23T01:27:31.565Z,27.69
2022-08-23T01:30:00.427Z,27.66
2022-08-23T01:32:27.899Z,27.61
2022-08-23T01:34:55.109Z,27.66
2022-08-23T01:37:22.637Z,27.57
2022-08-23T01:39:51.201Z,27.57
2022-08-23T01:42:18.319Z,27.59
2022-08-23T01:44:45.540Z,27.55
2022-08-23T01:47:12.632Z,27.46
2022-08-23T01:49:39.730Z,27.46
2022-08-23T01:52:06.866Z,27.46
2022-08-23T01:54:33.925Z,27.39
2022-08-23T01:57:02.726Z,27.27
2022-08-23T01:59:29.923Z,27.31
2022-08-23T02:01:57.015Z,27.24
2022-08-23T02:04:24.262Z,27.35
2022-08-23T02:06:51.443Z,27.27
2022-08-23T02:09:18.640Z,27.25
2022-08-23T02:11:47.450Z,27.24
2022-08-23T02:14:19.554Z,27.25
2022-08-23T02:17:03.498Z,27.26
2022-08-23T02:19:31.759Z,27.28
2022-08-23T02:21:58.903Z,27.27
2022-08-23T02:24:26.504Z,27.27
2022-08-23T02:26:57.124Z,27.24
2022-08-23T02:29:27.908Z,27.25
2022-08-23T02:31:55.673Z,27.16
2022-08-23T02:34:23.321Z,27.14
2022-08-23T02:36:53.413Z,27.06
2022-08-23T02:39:21.176Z,27.09
2022-08-23T02:41:48.663Z,27.18
2022-08-23T02:44:16.342Z,27.19
2022-08-23T02:46:44.961Z,27.10
2022-08-23T02:49:14.626Z,27.19
2022-08-23T02:51:41.953Z,27.16
2022-08-23T02:54:09.136Z,26.99
2022-08-23T02:56:36.664Z,27.00
2022-08-23T02:59:05.559Z,27.01
2022-08-23T03:01:35.642Z,26.94
2022-08-23T03:04:05.979Z,26.93
2022-08-23T03:06:33.118Z,26.97
2022-08-23T03:09:00.879Z,26.98
2022-08-23T03:11:28.051Z,26.91
2022-08-23T03:13:55.788Z,26.88
2022-08-23T03:16:24.146Z,26.91
2022-08-23T03:18:52.328Z,26.95
2022-08-23T03:21:21.891Z,26.94
2022-08-23T03:23:49.365Z,26.93
2022-08-23T03:26:17.213Z,27.01
2022-08-23T03:28:45.386Z,26.93
2022-08-23T03:31:14.800Z,26.80
2022-08-23T03:33:42.052Z,26.79
2022-08-23T03:36:12.241Z,26.81
2022-08-23T03:38:42.037Z,26.72
2022-08-23T03:41:10.079Z,26.83
2022-08-23T03:43:38.608Z,26.80
2022-08-23T03:46:07.077Z,26.78
2022-08-23T03:48:34.253Z,26.74
2022-08-23T03:51:01.558Z,26.69
2022-08-23T03:53:28.840Z,26.65
2022-08-23T03:55:57.505Z,26.67
2022-08-23T03:58:24.735Z,26.63
2022-08-23T04:00:51.934Z,26.63
2022-08-23T04:03:19.053Z,26.61
2022-08-23T04:05:46.185Z,26.61
2022-08-23T04:08:13.678Z,26.60
2022-08-23T04:10:41.369Z,26.54
2022-08-23T04:13:10.114Z,26.53
2022-08-23T04:15:37.795Z,26.55
2022-08-23T04:18:06.710Z,26.65
2022-08-23T04:20:36.836Z,26.52
2022-08-23T04:23:05.691Z,26.41
2022-08-23T04:25:34.944Z,26.38
2022-08-23T04:28:03.946Z,26.40
2022-08-23T04:30:33.589Z,26.41
2022-08-23T04:33:01.631Z,26.35
2022-08-23T04:35:29.111Z,26.33
2022-08-23T04:37:56.901Z,26.31
2022-08-23T04:40:24.214Z,26.34
2022-08-23T04:42:51.553Z,26.34
2022-08-23T04:45:18.997Z,26.30
2022-08-23T04:47:47.977Z,26.26
2022-08-23T04:50:15.179Z,26.27
2022-08-23T04:52:42.260Z,26.25
2022-08-23T04:55:09.782Z,26.19
2022-08-23T04:57:36.943Z,26.21
2022-08-23T05:00:06.427Z,26.13
2022-08-23T05:02:33.550Z,26.13
2022-08-23T05:05:02.392Z,26.19
2022-08-23T05:07:41.833Z,26.16
2022-08-23T05:10:13.138Z,26.09
2022-08-23T05:12:40.740Z,26.15
2022-08-23T05:15:09.439Z,26.20
2022-08-23T05:17:37.063Z,26.11
2022-08-23T05:20:08.519Z,26.13
2022-08-23T05:22:37.053Z,26.15
2022-08-23T05:25:05.528Z,26.11
2022-08-23T05:27:32.816Z,26.11
2022-08-23T05:29:59.975Z,26.22
2022-08-23T05:32:30.402Z,26.23
2022-08-23T05:35:00.544Z,26.33
2022-08-23T05:37:29.387Z,26.35
2022-08-23T05:39:56.576Z,26.36
2022-08-23T05:42:23.964Z,26.56
2022-08-23T05:44:51.164Z,26.58
2022-08-23T05:47:25.003Z,26.65
2022-08-23T05:49:52.217Z,26.71
2022-08-23T05:52:19.316Z,26.74
2022-08-23T05:54:47.815Z,26.81
2022-08-23T05:57:14.896Z,26.95
2022-08-23T05:59:42.153Z,27.03
2022-08-23T06:02:10.269Z,27.16
2022-08-23T06:04:37.474Z,27.15
2022-08-23T06:07:04.805Z,27.35
2022-08-23T06:09:31.962Z,27.46
2022-08-23T06:12:00.450Z,27.57
2022-08-23T06:14:27.610Z,27.57
2022-08-23T06:16:56.367Z,27.63
2022-08-23T06:19:24.332Z,27.75
2022-08-23T06:21:52.432Z,27.80
2022-08-23T06:24:20.128Z,27.83
2022-08-23T06:26:47.362Z,28.15
2022-08-23T06:29:20.445Z,28.37
2022-08-23T06:31:51.226Z,28.49
2022-08-23T06:34:21.769Z,28.80
2022-08-23T06:36:51.702Z,28.89
2022-08-23T06:39:21.619Z,29.43
2022-08-23T06:41:49.603Z,29.72
2022-08-23T06:44:19.565Z,29.84
2022-08-23T06:46:47.497Z,30.10
2022-08-23T06:49:15.543Z,30.27
2022-08-23T06:51:45.396Z,30.67
2022-08-23T06:54:16.156Z,30.80
2022-08-23T06:56:44.361Z,30.84
2022-08-23T06:59:11.543Z,30.69
2022-08-23T07:01:46.948Z,31.06
2022-08-23T07:04:19.400Z,31.03
2022-08-23T07:06:46.715Z,31.42
2022-08-23T07:09:14.661Z,31.69
2022-08-23T07:11:42.627Z,31.90
2022-08-23T07:14:11.546Z,31.92
2022-08-23T07:16:43.514Z,32.09
2022-08-23T07:19:11.040Z,32.08
2022-08-23T07:21:38.741Z,32.37
2022-08-23T07:24:06.407Z,32.27
2022-08-23T07:26:35.008Z,32.45
2022-08-23T07:29:03.691Z,32.59
2022-08-23T07:31:34.006Z,32.68
2022-08-23T07:34:05.398Z,32.65
2022-08-23T07:36:34.136Z,32.65
2022-08-23T07:39:01.958Z,32.83
2022-08-23T07:41:32.773Z,32.94
2022-08-23T07:44:03.267Z,32.73
2022-08-23T07:46:31.849Z,32.85
2022-08-23T07:49:00.795Z,32.90
2022-08-23T07:51:32.816Z,32.79
2022-08-23T07:54:02.896Z,32.66
2022-08-23T07:56:30.091Z,32.44
2022-08-23T07:58:57.313Z,32.35
2022-08-23T08:01:27.691Z,32.59
2022-08-23T08:04:00.648Z,32.76
2022-08-23T08:06:32.663Z,32.89
2022-08-23T08:09:00.265Z,33.21
2022-08-23T08:11:34.580Z,33.11
2022-08-23T08:14:07.012Z,33.37
2022-08-23T08:16:37.574Z,33.50
2022-08-23T08:19:08.197Z,33.49
2022-08-23T08:21:39.675Z,33.65
2022-08-23T08:24:11.774Z,33.63
2022-08-23T08:26:39.087Z,33.45
2022-08-23T08:29:06.661Z,33.50
2022-08-23T08:31:33.951Z,33.46
2022-08-23T08:34:01.094Z,33.54
2022-08-23T08:36:32.435Z,32.90
2022-08-23T08:39:01.471Z,32.69
2022-08-23T08:41:45.328Z,32.66
2022-08-23T08:44:25.620Z,32.71
2022-08-23T08:46:55.828Z,32.55
2022-08-23T08:49:37.040Z,32.37
2022-08-23T08:52:16.061Z,32.51
2022-08-23T08:54:49.186Z,33.00
2022-08-23T08:57:27.499Z,32.91
2022-08-23T09:00:00.302Z,32.91
2022-08-23T09:02:33.673Z,32.89
2022-08-23T09:05:05.703Z,33.33
2022-08-23T09:07:49.536Z,33.19
2022-08-23T09:10:40.134Z,33.35
2022-08-23T09:13:30.125Z,33.12
2022-08-23T09:16:09.829Z,33.02
2022-08-23T09:18:37.750Z,33.27
2022-08-23T09:21:09.146Z,33.46
2022-08-23T09:23:41.267Z,33.47
2022-08-23T09:26:20.945Z,33.19
2022-08-23T09:28:51.275Z,32.92
2022-08-23T09:31:36.458Z,33.18
2022-08-23T09:34:04.897Z,33.04
2022-08-23T09:36:36.302Z,32.69
2022-08-23T09:39:06.106Z,32.86
2022-08-23T09:41:37.563Z,33.21
2022-08-23T09:44:08.184Z,33.26
2022-08-23T09:46:38.228Z,33.04
2022-08-23T09:49:25.740Z,33.51
2022-08-23T09:51:55.523Z,33.33
2022-08-23T09:54:30.265Z,33.34
2022-08-23T09:57:02.185Z,33.65
2022-08-23T09:59:40.124Z,33.90
2022-08-23T10:02:17.595Z,33.46
2022-08-23T10:04:57.159Z,33.58
2022-08-23T10:07:29.073Z,33.92
2022-08-23T10:10:18.848Z,34.10
2022-08-23T10:12:47.912Z,34.14
2022-08-23T10:15:17.899Z,34.47
2022-08-23T10:17:54.448Z,34.45
2022-08-23T10:20:35.805Z,34.26
2022-08-23T10:23:19.885Z,34.29
2022-08-23T10:25:57.864Z,34.03
2022-08-23T10:28:39.590Z,33.55
2022-08-23T10:31:20.305Z,33.67
2022-08-23T10:34:00.183Z,34.03
2022-08-23T10:36:34.605Z,33.76
2022-08-23T10:39:07.329Z,33.47
2022-08-23T10:41:53.724Z,33.67
2022-08-23T10:44:32.845Z,34.03
2022-08-23T10:47:16.548Z,34.29
2022-08-23T10:49:49.467Z,33.99
2022-08-23T10:52:22.232Z,34.35
2022-08-23T10:54:55.943Z,34.44
2022-08-23T10:57:28.205Z,34.39
2022-08-23T10:59:57.463Z,33.85
2022-08-23T11:02:35.048Z,33.34
2022-08-23T11:05:06.804Z,33.66
2022-08-23T11:07:37.384Z,34.03
2022-08-23T11:10:17.826Z,33.99
2022-08-23T11:12:57.085Z,33.96
2022-08-23T11:15:37.391Z,33.95
2022-08-23T11:18:36.044Z,33.87
2022-08-23T11:21:09.163Z,34.14
2022-08-23T11:23:40.986Z,34.07
2022-08-23T11:26:11.543Z,34.20
2022-08-23T11:28:41.912Z,34.13
2022-08-23T11:31:25.825Z,34.32
2022-08-23T11:34:03.105Z,34.21
2022-08-23T11:36:32.047Z,34.32
2022-08-23T11:39:19.647Z,33.54
2022-08-23T11:42:06.024Z,34.11
2022-08-23T11:44:39.543Z,34.02
2022-08-23T11:47:11.881Z,33.97
2022-08-23T11:50:15.943Z,34.10
2022-08-23T11:53:09.639Z,34.34
2022-08-23T11:56:12.941Z,34.20
2022-08-23T11:59:11.583Z,34.28
2022-08-23T12:01:41.621Z,34.06
2022-08-23T12:04:26.741Z,34.13
2022-08-23T12:06:55.386Z,33.80
2022-08-23T12:09:50.673Z,33.77
2022-08-23T12:12:37.831Z,33.72
2022-08-23T12:15:12.066Z,33.79
2022-08-23T12:18:08.121Z,32.93
2022-08-23T12:20:39.199Z,33.17
2022-08-23T12:23:14.660Z,33.21
2022-08-23T12:25:42.742Z,33.52
2022-08-23T12:28:38.921Z,33.47
2022-08-23T12:31:22.567Z,33.22
2022-08-23T12:34:12.240Z,32.65
2022-08-23T12:37:11.000Z,33.17
2022-08-23T12:39:46.772Z,33.44
2022-08-23T12:42:16.845Z,33.74
2022-08-23T12:44:47.241Z,33.87
2022-08-23T12:47:18.061Z,33.72
2022-08-23T12:49:57.260Z,33.66
2022-08-23T12:52:28.542Z,33.65
2022-08-23T12:54:55.759Z,33.40
2022-08-23T12:57:32.184Z,33.58
2022-08-23T13:00:16.742Z,33.37
2022-08-23T13:02:52.068Z,33.10
2022-08-23T13:05:34.242Z,33.13
2022-08-23T13:08:08.103Z,33.44
2022-08-23T13:10:39.223Z,32.79
2022-08-23T13:13:10.362Z,33.11
2022-08-23T13:15:54.168Z,32.84
2022-08-23T13:18:30.818Z,33.01
2022-08-23T13:21:17.544Z,33.35
2022-08-23T13:23:47.920Z,33.04
2022-08-23T13:26:28.159Z,32.89
2022-08-23T13:29:12.239Z,32.86
2022-08-23T13:31:53.159Z,32.95
2022-08-23T13:34:39.861Z,33.02
2022-08-23T13:37:25.158Z,33.24
2022-08-23T13:39:57.468Z,32.49
2022-08-23T13:42:36.078Z,33.02
2022-08-23T13:45:14.698Z,33.22
2022-08-23T13:47:48.960Z,33.05
2022-08-23T13:50:22.718Z,33.26
2022-08-23T13:53:13.996Z,33.19
2022-08-23T13:55:44.258Z,32.40
2022-08-23T13:58:15.119Z,32.75
2022-08-23T14:00:46.955Z,31.97
2022-08-23T14:03:22.440Z,31.67
2022-08-23T14:05:49.622Z,32.24
2022-08-23T14:08:16.778Z,32.60
2022-08-23T14:10:46.360Z,32.70
2022-08-23T14:13:15.940Z,32.80
2022-08-23T14:18:33.659Z,32.85
2022-08-23T14:21:01.079Z,32.95
2022-08-23T14:23:28.279Z,32.98
2022-08-23T14:25:57.300Z,32.82
2022-08-23T14:28:29.583Z,32.89
2022-08-23T14:30:57.343Z,33.05
2022-08-23T14:33:24.756Z,32.69
2022-08-23T14:35:51.942Z,32.67
2022-08-23T14:38:19.370Z,33.02
2022-08-23T14:40:52.498Z,33.02
2022-08-23T14:43:21.781Z,32.89
2022-08-23T14:45:49.613Z,33.01
2022-08-23T14:48:17.440Z,32.93
2022-08-23T14:50:45.349Z,33.01
2022-08-23T14:53:13.619Z,33.15
2022-08-23T14:55:41.140Z,33.02
2022-08-23T14:58:08.380Z,32.86
2022-08-23T15:00:38.018Z,32.99
2022-08-23T15:03:09.968Z,32.86
2022-08-23T15:05:37.599Z,33.03
2022-08-23T15:08:04.961Z,33.09
2022-08-23T15:13:28.502Z,32.63
2022-08-23T15:16:03.460Z,32.89
2022-08-23T15:18:30.879Z,32.93
2022-08-23T15:21:00.952Z,32.61
2022-08-23T15:23:28.726Z,32.73
2022-08-23T15:25:56.845Z,32.81
2022-08-23T15:28:24.831Z,32.89
2022-08-23T15:30:53.066Z,32.87
2022-08-23T15:33:27.057Z,32.83
2022-08-23T15:35:58.505Z,32.76
2022-08-23T15:38:26.266Z,32.86
2022-08-23T15:40:54.901Z,32.82
2022-08-23T15:43:30.005Z,32.71
2022-08-23T15:46:05.075Z,32.65
2022-08-23T15:48:41.627Z,32.72
2022-08-23T15:51:10.492Z,32.84
2022-08-23T15:53:39.263Z,32.94
2022-08-23T15:56:11.106Z,32.76
2022-08-23T15:58:39.259Z,32.83
2022-08-23T16:01:07.230Z,32.71
2022-08-23T16:03:36.241Z,32.76
2022-08-23T16:06:04.415Z,32.76
2022-08-23T16:08:35.881Z,32.75
2022-08-23T16:11:03.246Z,32.75
2022-08-23T16:13:30.705Z,32.79
2022-08-23T16:15:58.250Z,32.65
2022-08-23T16:18:25.491Z,32.74
2022-08-23T16:20:54.448Z,32.67
2022-08-23T16:23:22.204Z,32.72
2022-08-23T16:25:49.364Z,32.52
2022-08-23T16:28:16.484Z,32.67
2022-08-23T16:30:43.752Z,32.77
2022-08-23T16:33:10.945Z,32.83
2022-08-23T16:35:38.084Z,32.39
2022-08-23T16:38:06.666Z,32.48
2022-08-23T16:40:33.727Z,32.50
2022-08-23T16:43:01.183Z,32.57
2022-08-23T16:45:28.408Z,32.65
2022-08-23T16:47:55.584Z,32.65
2022-08-23T16:50:22.764Z,32.44
2022-08-23T16:52:49.843Z,32.33
2022-08-23T16:55:19.203Z,32.29
2022-08-23T16:57:46.363Z,32.42
2022-08-23T17:00:14.286Z,32.32
2022-08-23T17:02:42.935Z,32.41
2022-08-23T17:05:13.132Z,32.50
2022-08-23T17:07:40.271Z,32.49
2022-08-23T17:10:09.850Z,32.45
2022-08-23T17:12:45.245Z,32.50
2022-08-23T17:15:20.481Z,32.44
2022-08-23T17:17:48.805Z,32.42
2022-08-23T17:20:17.571Z,32.13
2022-08-23T17:22:45.052Z,32.34
2022-08-23T17:25:14.391Z,32.12
2022-08-23T17:27:46.413Z,32.21
2022-08-23T17:30:16.252Z,32.15
2022-08-23T17:32:44.711Z,32.16
2022-08-23T17:35:15.093Z,32.12
2022-08-23T17:37:43.029Z,32.01
2022-08-23T17:40:14.353Z,31.88
2022-08-23T17:42:43.876Z,32.07
2022-08-23T17:45:11.631Z,32.04
2022-08-23T17:47:38.872Z,32.05
2022-08-23T17:50:07.052Z,32.05
2022-08-23T17:52:34.492Z,31.94
2022-08-23T17:55:01.678Z,31.96
2022-08-23T17:57:30.946Z,32.00
2022-08-23T18:00:01.370Z,31.99
2022-08-23T18:02:28.552Z,32.04
2022-08-23T18:04:55.834Z,32.08
2022-08-23T18:07:23.002Z,32.07
2022-08-23T18:09:51.221Z,31.94
2022-08-23T18:12:18.361Z,31.93
2022-08-23T18:14:45.535Z,31.87
2022-08-23T18:17:14.061Z,31.82
2022-08-23T18:19:41.302Z,31.76
2022-08-23T18:22:08.641Z,31.76
2022-08-23T18:24:35.842Z,31.72
2022-08-23T18:27:03.051Z,31.75
2022-08-23T18:29:33.571Z,31.74
2022-08-23T18:32:00.998Z,31.67
2022-08-23T18:34:29.764Z,31.58
2022-08-23T18:36:57.123Z,31.52
2022-08-23T18:39:31.566Z,31.44
2022-08-23T18:42:00.833Z,31.38
2022-08-23T18:44:28.209Z,31.48
2022-08-23T18:46:55.687Z,31.44
2022-08-23T18:49:22.846Z,31.38
2022-08-23T18:51:51.472Z,31.31
2022-08-23T18:54:18.579Z,31.24
2022-08-23T18:56:45.971Z,31.20
2022-08-23T18:59:13.169Z,31.25
2022-08-23T19:01:40.588Z,31.18
2022-08-23T19:04:09.711Z,31.12
2022-08-23T19:06:37.549Z,31.15
2022-08-23T19:09:08.652Z,31.09
2022-08-23T19:11:38.953Z,31.00
2022-08-23T19:14:07.472Z,30.95
2022-08-23T19:16:34.617Z,31.09
2022-08-23T19:19:01.771Z,31.09
2022-08-23T19:21:29.130Z,30.93
2022-08-23T19:23:57.459Z,31.01
2022-08-23T19:26:29.246Z,30.90
2022-08-23T19:28:56.411Z,30.85
2022-08-23T19:31:25.097Z,30.87
2022-08-23T19:33:52.489Z,30.81
2022-08-23T19:36:44.835Z,30.77
2022-08-23T19:39:09.189Z,30.85
2022-08-23T19:41:38.013Z,30.70
2022-08-23T19:44:05.809Z,30.69
2022-08-23T19:46:32.890Z,30.67
2022-08-23T19:49:00.415Z,30.48
2022-08-23T19:51:28.495Z,30.66
2022-08-23T19:53:55.692Z,30.66
2022-08-23T19:56:23.111Z,30.67
2022-08-23T19:58:51.729Z,30.68
2022-08-23T20:01:18.852Z,30.66
2022-08-23T20:03:46.289Z,30.53
2022-08-23T20:06:15.178Z,30.64
2022-08-23T20:08:46.152Z,30.58
2022-08-23T20:11:13.212Z,30.57
2022-08-23T20:13:40.811Z,30.53
2022-08-23T20:16:09.927Z,30.45
2022-08-23T20:18:37.112Z,30.45
2022-08-23T20:21:04.251Z,30.41
2022-08-23T20:23:31.311Z,30.43
2022-08-23T20:25:58.490Z,30.39
2022-08-23T20:28:26.569Z,30.34
2022-08-23T20:30:53.771Z,30.36
2022-08-23T20:33:22.432Z,30.19
2022-08-23T20:35:49.611Z,30.23
2022-08-23T20:38:32.866Z,30.19
2022-08-23T20:41:00.951Z,30.21
2022-08-23T20:43:30.811Z,30.23
2022-08-23T20:45:57.992Z,30.13
2022-08-23T20:48:26.632Z,30.16
2022-08-23T20:50:53.774Z,30.13
2022-08-23T20:53:20.972Z,30.15
2022-08-23T20:55:48.154Z,30.18
2022-08-23T20:58:15.296Z,30.18
2022-08-23T21:00:42.475Z,30.10
2022-08-23T21:03:09.718Z,30.14
2022-08-23T21:05:38.436Z,30.17
2022-08-23T21:08:05.578Z,30.20
2022-08-23T21:10:33.157Z,30.11
2022-08-23T21:13:00.585Z,30.11
2022-08-23T21:15:32.204Z,30.03
2022-08-23T21:17:59.477Z,29.88
2022-08-23T21:20:27.079Z,29.90
2022-08-23T21:22:55.625Z,30.01
2022-08-23T21:25:22.737Z,29.87
2022-08-23T21:27:49.858Z,29.78
2022-08-23T21:30:17.038Z,29.82
2022-08-23T21:32:44.177Z,29.68
2022-08-23T21:35:11.858Z,29.67
2022-08-23T21:37:38.976Z,29.62
2022-08-23T21:40:08.913Z,29.53
2022-08-23T21:42:36.097Z,29.51
2022-08-23T21:45:03.978Z,29.49
2022-08-23T21:47:31.142Z,29.44
2022-08-23T21:49:58.477Z,29.45
2022-08-23T21:52:25.918Z,29.26
2022-08-23T21:54:53.109Z,29.14
2022-08-23T21:57:21.657Z,29.06
2022-08-23T21:59:48.757Z,29.13
2022-08-23T22:02:16.022Z,29.05
2022-08-23T22:04:43.209Z,29.03
2022-08-23T22:07:10.358Z,28.92
2022-08-23T22:09:37.985Z,28.99
2022-08-23T22:12:05.748Z,28.96
2022-08-23T22:14:34.796Z,28.85
2022-08-23T22:17:02.838Z,28.75
2022-08-23T22:19:30.124Z,28.81
2022-08-23T22:21:57.558Z,28.80
2022-08-23T22:24:26.147Z,28.83
2022-08-23T22:26:55.624Z,28.76
2022-08-23T22:29:23.650Z,28.72
2022-08-23T22:31:52.230Z,28.78
2022-08-23T22:34:19.390Z,28.76
2022-08-23T22:36:48.167Z,28.74
2022-08-23T22:39:19.749Z,28.66
2022-08-23T22:41:46.850Z,28.66
2022-08-23T22:44:13.892Z,28.72
2022-08-23T22:46:41.390Z,28.69
2022-08-23T22:49:10.010Z,28.69
2022-08-23T22:51:38.577Z,28.75
2022-08-23T22:54:09.240Z,28.66
2022-08-23T22:56:40.159Z,28.70
2022-08-23T22:59:08.378Z,28.56
2022-08-23T23:01:38.385Z,28.54
2022-08-23T23:04:08.865Z,28.52
2022-08-23T23:06:38.798Z,28.49
2022-08-23T23:09:07.837Z,28.44
2022-08-23T23:11:35.876Z,28.43
2022-08-23T23:14:04.617Z,28.76
2022-08-23T23:16:32.254Z,28.95
2022-08-23T23:18:59.478Z,29.06
2022-08-23T23:21:26.581Z,28.88
2022-08-23T23:23:55.258Z,28.97
2022-08-23T23:26:22.320Z,28.93
2022-08-23T23:28:49.458Z,28.91
2022-08-23T23:31:16.823Z,28.92
2022-08-23T23:33:44.098Z,29.08
2022-08-23T23:36:11.539Z,29.07
2022-08-23T23:38:45.137Z,29.16
2022-08-23T23:41:14.788Z,29.17
2022-08-23T23:43:42.442Z,29.12
2022-08-23T23:46:12.224Z,29.28
2022-08-23T23:48:41.078Z,29.26
2022-08-23T23:51:09.977Z,29.21
2022-08-23T23:53:38.157Z,29.27
2022-08-23T23:56:10.500Z,29.31
2022-08-23T23:58:39.379Z,29.26
